sensor_id;sensor_type;location;lat;lon;timestamp;pressure;altitude;pressure_sealevel;temperature;humidity
54808;BME280;40708;50.364;7.550;2022-12-07T00:01:13;100753.81;;;3.99;100.00
54808;BME280;40708;50.364;7.550;2022-12-07T00:03:40;100752.94;;;4.00;100.00
54808;BME280;40708;50.364;7.550;2022-12-07T00:06:07;100754.75;;;4.01;100.00
54808;BME280;40708;50.364;7.550;2022-12-07T00:08:34;100753.84;;;4.01;100.00
54808;BME280;40708;50.364;7.550;2022-12-07T00:11:03;100746.88;;;4.01;100.00
54808;BME280;40708;50.364;7.550;2022-12-07T00:13:29;100745.97;;;4.01;100.00
54808;BME280;40708;50.364;7.550;2022-12-07T00:15:55;100744.13;;;3.98;100.00
54808;BME280;40708;50.364;7.550;2022-12-07T00:18:20;100738.00;;;3.98;100.00
54808;BME280;40708;50.364;7.550;2022-12-07T00:20:45;100741.53;;;4.00;100.00
54808;BME280;40708;50.364;7.550;2022-12-07T00:23:11;100735.13;;;3.90;100.00
54808;BME280;40708;50.364;7.550;2022-12-07T00:25:36;100736.97;;;3.93;100.00
54808;BME280;40708;50.364;7.550;2022-12-07T00:28:01;100728.16;;;3.91;100.00
54808;BME280;40708;50.364;7.550;2022-12-07T00:30:27;100735.97;;;3.89;100.00
54808;BME280;40708;50.364;7.550;2022-12-07T00:32:52;100733.34;;;3.89;100.00
54808;BME280;40708;50.364;7.550;2022-12-07T00:35:17;100732.53;;;3.92;100.00
54808;BME280;40708;50.364;7.550;2022-12-07T00:37:43;100726.47;;;3.93;100.00
54808;BME280;40708;50.364;7.550;2022-12-07T00:40:08;100723.88;;;3.94;100.00
54808;BME280;40708;50.364;7.550;2022-12-07T00:42:34;100726.66;;;3.99;100.00
54808;BME280;40708;50.364;7.550;2022-12-07T00:44:59;100723.00;;;3.94;100.00
54808;BME280;40708;50.364;7.550;2022-12-07T00:47:24;100726.44;;;3.91;100.00
54808;BME280;40708;50.364;7.550;2022-12-07T00:49:50;100722.03;;;3.92;100.00
54808;BME280;40708;50.364;7.550;2022-12-07T00:52:15;100727.13;;;3.86;100.00
54808;BME280;40708;50.364;7.550;2022-12-07T00:54:40;100727.28;;;3.92;100.00
54808;BME280;40708;50.364;7.550;2022-12-07T00:57:05;100725.44;;;3.88;100.00
54808;BME280;40708;50.364;7.550;2022-12-07T00:59:31;100729.66;;;3.83;100.00
54808;BME280;40708;50.364;7.550;2022-12-07T01:01:56;100722.75;;;3.86;100.00
54808;BME280;40708;50.364;7.550;2022-12-07T01:04:21;100719.59;;;3.96;100.00
54808;BME280;40708;50.364;7.550;2022-12-07T01:06:47;100723.72;;;3.88;100.00
54808;BME280;40708;50.364;7.550;2022-12-07T01:09:12;100721.13;;;3.90;100.00
54808;BME280;40708;50.364;7.550;2022-12-07T01:11:37;100724.78;;;3.95;100.00
54808;BME280;40708;50.364;7.550;2022-12-07T01:14:02;100715.94;;;3.91;100.00
54808;BME280;40708;50.364;7.550;2022-12-07T01:16:29;100713.25;;;3.90;100.00
54808;BME280;40708;50.364;7.550;2022-12-07T01:18:56;100713.22;;;3.88;100.00
54808;BME280;40708;50.364;7.550;2022-12-07T01:21:24;100719.38;;;3.90;100.00
54808;BME280;40708;50.364;7.550;2022-12-07T01:23:50;100713.16;;;3.87;100.00
54808;BME280;40708;50.364;7.550;2022-12-07T01:26:18;100716.63;;;3.86;100.00
54808;BME280;40708;50.364;7.550;2022-12-07T01:28:43;100717.50;;;3.86;100.00
54808;BME280;40708;50.364;7.550;2022-12-07T01:31:14;100714.34;;;3.96;100.00
54808;BME280;40708;50.364;7.550;2022-12-07T01:33:41;100712.44;;;3.92;100.00
54808;BME280;40708;50.364;7.550;2022-12-07T01:36:24;100714.25;;;3.93;100.00
54808;BME280;40708;50.364;7.550;2022-12-07T01:38:53;100714.47;;;4.01;100.00
54808;BME280;40708;50.364;7.550;2022-12-07T01:41:21;100706.47;;;3.96;100.00
54808;BME280;40708;50.364;7.550;2022-12-07T01:46:34;100704.88;;;4.01;100.00
54808;BME280;40708;50.364;7.550;2022-12-07T01:49:00;100705.66;;;3.99;100.00
54808;BME280;40708;50.364;7.550;2022-12-07T01:51:26;100706.63;;;4.02;100.00
54808;BME280;40708;50.364;7.550;2022-12-07T01:53:52;100703.06;;;4.00;100.00
54808;BME280;40708;50.364;7.550;2022-12-07T01:56:20;100701.31;;;3.99;100.00
54808;BME280;40708;50.364;7.550;2022-12-07T01:58:49;100692.53;;;3.99;100.00
54808;BME280;40708;50.364;7.550;2022-12-07T02:01:16;100689.81;;;3.96;100.00
54808;BME280;40708;50.364;7.550;2022-12-07T02:03:43;100682.97;;;4.01;100.00
54808;BME280;40708;50.364;7.550;2022-12-07T02:06:12;100684.75;;;4.02;100.00
54808;BME280;40708;50.364;7.550;2022-12-07T02:08:40;100686.50;;;4.01;100.00
54808;BME280;40708;50.364;7.550;2022-12-07T02:11:07;100686.50;;;4.01;100.00
54808;BME280;40708;50.364;7.550;2022-12-07T02:13:35;100685.69;;;4.04;100.00
54808;BME280;40708;50.364;7.550;2022-12-07T02:27:00;100679.50;;;4.02;100.00
54808;BME280;40708;50.364;7.550;2022-12-07T02:29:33;100690.97;;;4.05;100.00
54808;BME280;40708;50.364;7.550;2022-12-07T02:34:32;100678.63;;;4.03;100.00
54808;BME280;40708;50.364;7.550;2022-12-07T02:37:06;100681.25;;;4.01;100.00
54808;BME280;40708;50.364;7.550;2022-12-07T02:39:42;100676.09;;;4.04;100.00
54808;BME280;40708;50.364;7.550;2022-12-07T02:42:15;100678.84;;;4.09;100.00
54808;BME280;40708;50.364;7.550;2022-12-07T02:44:43;100676.25;;;4.10;100.00
54808;BME280;40708;50.364;7.550;2022-12-07T02:47:12;100678.00;;;4.10;100.00
54808;BME280;40708;50.364;7.550;2022-12-07T02:49:39;100670.06;;;4.08;100.00
54808;BME280;40708;50.364;7.550;2022-12-07T02:52:05;100666.59;;;4.09;100.00
54808;BME280;40708;50.364;7.550;2022-12-07T02:54:30;100667.59;;;4.13;100.00
54808;BME280;40708;50.364;7.550;2022-12-07T02:57:06;100672.88;;;4.14;100.00
54808;BME280;40708;50.364;7.550;2022-12-07T02:59:45;100666.00;;;4.18;100.00
54808;BME280;40708;50.364;7.550;2022-12-07T03:07:41;100657.25;;;4.19;100.00
54808;BME280;40708;50.364;7.550;2022-12-07T03:10:23;100656.41;;;4.20;100.00
54808;BME280;40708;50.364;7.550;2022-12-07T03:15:32;100648.53;;;4.20;100.00
54808;BME280;40708;50.364;7.550;2022-12-07T03:18:00;100651.19;;;4.21;100.00
54808;BME280;40708;50.364;7.550;2022-12-07T03:20:29;100650.47;;;4.27;100.00
54808;BME280;40708;50.364;7.550;2022-12-07T03:22:55;100649.56;;;4.25;100.00
54808;BME280;40708;50.364;7.550;2022-12-07T03:25:22;100647.75;;;4.24;100.00
54808;BME280;40708;50.364;7.550;2022-12-07T03:27:59;100652.16;;;4.24;100.00
54808;BME280;40708;50.364;7.550;2022-12-07T03:30:34;100645.06;;;4.21;100.00
54808;BME280;40708;50.364;7.550;2022-12-07T03:33:11;100644.22;;;4.22;100.00
54808;BME280;40708;50.364;7.550;2022-12-07T03:36:06;100651.19;;;4.21;100.00
54808;BME280;40708;50.364;7.550;2022-12-07T03:38:43;100645.13;;;4.24;100.00
54808;BME280;40708;50.364;7.550;2022-12-07T03:41:16;100646.13;;;4.28;100.00
54808;BME280;40708;50.364;7.550;2022-12-07T03:43:44;100646.09;;;4.26;100.00
54808;BME280;40708;50.364;7.550;2022-12-07T03:46:34;100643.59;;;4.31;100.00
54808;BME280;40708;50.364;7.550;2022-12-07T03:49:11;100647.03;;;4.30;100.00
54808;BME280;40708;50.364;7.550;2022-12-07T03:51:47;100641.66;;;4.24;100.00
54808;BME280;40708;50.364;7.550;2022-12-07T03:54:24;100644.38;;;4.27;100.00
54808;BME280;40708;50.364;7.550;2022-12-07T03:56:53;100638.06;;;4.21;100.00
54808;BME280;40708;50.364;7.550;2022-12-07T03:59:20;100635.34;;;4.18;100.00
54808;BME280;40708;50.364;7.550;2022-12-07T04:01:53;100630.91;;;4.16;100.00
54808;BME280;40708;50.364;7.550;2022-12-07T04:04:20;100633.69;;;4.20;100.00
54808;BME280;40708;50.364;7.550;2022-12-07T04:06:45;100628.34;;;4.19;100.00
54808;BME280;40708;50.364;7.550;2022-12-07T04:09:10;100635.34;;;4.18;100.00
54808;BME280;40708;50.364;7.550;2022-12-07T04:11:36;100638.94;;;4.20;100.00
54808;BME280;40708;50.364;7.550;2022-12-07T04:14:01;100639.03;;;4.25;100.00
54808;BME280;40708;50.364;7.550;2022-12-07T04:16:53;100636.47;;;4.27;100.00
54808;BME280;40708;50.364;7.550;2022-12-07T04:19:20;100636.59;;;4.31;100.00
54808;BME280;40708;50.364;7.550;2022-12-07T04:21:46;100632.09;;;4.27;100.00
54808;BME280;40708;50.364;7.550;2022-12-07T04:24:13;100631.22;;;4.27;100.00
54808;BME280;40708;50.364;7.550;2022-12-07T04:26:39;100635.63;;;4.28;100.00
54808;BME280;40708;50.364;7.550;2022-12-07T04:29:04;100636.53;;;4.30;100.00
54808;BME280;40708;50.364;7.550;2022-12-07T04:31:30;100625.09;;;4.26;100.00
54808;BME280;40708;50.364;7.550;2022-12-07T04:33:55;100631.06;;;4.22;100.00
54808;BME280;40708;50.364;7.550;2022-12-07T04:36:21;100638.25;;;4.28;100.00
54808;BME280;40708;50.364;7.550;2022-12-07T04:38:46;100632.06;;;4.26;100.00
54808;BME280;40708;50.364;7.550;2022-12-07T04:41:12;100638.94;;;4.22;100.00
54808;BME280;40708;50.364;7.550;2022-12-07T04:43:38;100638.06;;;4.21;100.00
54808;BME280;40708;50.364;7.550;2022-12-07T04:46:03;100639.00;;;4.24;100.00
54808;BME280;40708;50.364;7.550;2022-12-07T04:48:29;100640.88;;;4.28;100.00
54808;BME280;40708;50.364;7.550;2022-12-07T04:50:54;100644.38;;;4.28;100.00
54808;BME280;40708;50.364;7.550;2022-12-07T04:53:20;100647.00;;;4.27;100.00
54808;BME280;40708;50.364;7.550;2022-12-07T04:55:45;100636.41;;;4.25;100.00
54808;BME280;40708;50.364;7.550;2022-12-07T04:58:12;100645.84;;;4.18;100.00
54808;BME280;40708;50.364;7.550;2022-12-07T05:00:38;100648.47;;;4.18;100.00
54808;BME280;40708;50.364;7.550;2022-12-07T05:03:03;100646.91;;;4.24;100.00
54808;BME280;40708;50.364;7.550;2022-12-07T05:05:28;100650.38;;;4.24;100.00
54808;BME280;40708;50.364;7.550;2022-12-07T05:07:53;100659.03;;;4.20;100.00
54808;BME280;40708;50.364;7.550;2022-12-07T05:10:19;100656.34;;;4.18;100.00
54808;BME280;40708;50.364;7.550;2022-12-07T05:12:44;100655.47;;;4.18;100.00
54808;BME280;40708;50.364;7.550;2022-12-07T05:15:11;100656.31;;;4.17;100.00
54808;BME280;40708;50.364;7.550;2022-12-07T05:17:36;100659.03;;;4.20;100.00
54808;BME280;40708;50.364;7.550;2022-12-07T05:20:02;100664.56;;;4.29;100.00
54808;BME280;40708;50.364;7.550;2022-12-07T05:22:27;100673.00;;;4.19;100.00
54808;BME280;40708;50.364;7.550;2022-12-07T05:24:54;100664.28;;;4.20;100.00
54808;BME280;40708;50.364;7.550;2022-12-07T05:27:19;100661.66;;;4.20;100.00
54808;BME280;40708;50.364;7.550;2022-12-07T05:29:45;100674.81;;;4.21;100.00
54808;BME280;40708;50.364;7.550;2022-12-07T05:32:10;100672.44;;;4.29;100.00
54808;BME280;40708;50.364;7.550;2022-12-07T05:34:35;100678.84;;;4.39;100.00
54808;BME280;40708;50.364;7.550;2022-12-07T05:37:01;100678.13;;;4.44;100.00
54808;BME280;40708;50.364;7.550;2022-12-07T05:39:26;100671.25;;;4.49;100.00
54808;BME280;40708;50.364;7.550;2022-12-07T05:41:51;100657.31;;;4.52;100.00
54808;BME280;40708;50.364;7.550;2022-12-07T05:44:35;100661.03;;;4.60;100.00
54808;BME280;40708;50.364;7.550;2022-12-07T05:47:00;100653.22;;;4.61;100.00
54808;BME280;40708;50.364;7.550;2022-12-07T05:49:26;100660.16;;;4.59;100.00
54808;BME280;40708;50.364;7.550;2022-12-07T05:51:51;100658.41;;;4.60;100.00
54808;BME280;40708;50.364;7.550;2022-12-07T05:54:17;100654.97;;;4.62;100.00
54808;BME280;40708;50.364;7.550;2022-12-07T05:56:42;100656.88;;;4.68;100.00
54808;BME280;40708;50.364;7.550;2022-12-07T05:59:08;100648.06;;;4.66;100.00
54808;BME280;40708;50.364;7.550;2022-12-07T06:01:50;100650.81;;;4.70;100.00
54808;BME280;40708;50.364;7.550;2022-12-07T06:04:16;100651.69;;;4.69;100.00
54808;BME280;40708;50.364;7.550;2022-12-07T06:06:42;100648.25;;;4.72;100.00
54808;BME280;40708;50.364;7.550;2022-12-07T06:09:07;100644.81;;;4.74;100.00
54808;BME280;40708;50.364;7.550;2022-12-07T06:11:32;100651.78;;;4.72;100.00
54808;BME280;40708;50.364;7.550;2022-12-07T06:14:16;100662.44;;;4.78;100.00
54808;BME280;40708;50.364;7.550;2022-12-07T06:16:42;100651.63;;;4.68;100.00
54808;BME280;40708;50.364;7.550;2022-12-07T06:19:07;100659.41;;;4.63;100.00
54808;BME280;40708;50.364;7.550;2022-12-07T06:21:32;100654.91;;;4.59;100.00
54808;BME280;40708;50.364;7.550;2022-12-07T06:23:57;100657.28;;;4.50;100.00
54808;BME280;40708;50.364;7.550;2022-12-07T06:26:23;100658.19;;;4.51;100.00
54808;BME280;40708;50.364;7.550;2022-12-07T06:28:48;100661.56;;;4.47;100.00
54808;BME280;40708;50.364;7.550;2022-12-07T06:31:13;100663.38;;;4.49;100.00
54808;BME280;40708;50.364;7.550;2022-12-07T06:33:39;100675.69;;;4.50;100.00
54808;BME280;40708;50.364;7.550;2022-12-07T06:36:04;100672.25;;;4.53;100.00
54808;BME280;40708;50.364;7.550;2022-12-07T06:38:29;100666.19;;;4.55;100.00
54808;BME280;40708;50.364;7.550;2022-12-07T06:40:55;100679.94;;;4.47;100.00
54808;BME280;40708;50.364;7.550;2022-12-07T06:43:20;100679.69;;;4.38;100.00
54808;BME280;40708;50.364;7.550;2022-12-07T06:45:45;100671.84;;;4.39;100.00
54808;BME280;40708;50.364;7.550;2022-12-07T06:48:11;100669.88;;;4.32;100.00
54808;BME280;40708;50.364;7.550;2022-12-07T06:50:36;100670.06;;;4.38;100.00
54808;BME280;40708;50.364;7.550;2022-12-07T06:53:01;100677.94;;;4.38;100.00
54808;BME280;40708;50.364;7.550;2022-12-07T06:55:27;100676.19;;;4.37;100.00
54808;BME280;40708;50.364;7.550;2022-12-07T06:57:52;100678.84;;;4.39;100.00
54808;BME280;40708;50.364;7.550;2022-12-07T07:00:18;100684.09;;;4.39;100.00
54808;BME280;40708;50.364;7.550;2022-12-07T07:02:43;100682.38;;;4.39;100.00
54808;BME280;40708;50.364;7.550;2022-12-07T07:05:09;100688.66;;;4.46;100.00
54808;BME280;40708;50.364;7.550;2022-12-07T07:07:34;100686.03;;;4.46;100.00
54808;BME280;40708;50.364;7.550;2022-12-07T07:09:59;100683.66;;;4.53;100.00
54808;BME280;40708;50.364;7.550;2022-12-07T07:12:25;100692.47;;;4.55;100.00
54808;BME280;40708;50.364;7.550;2022-12-07T07:14:50;100683.78;;;4.59;100.00
54808;BME280;40708;50.364;7.550;2022-12-07T07:17:15;100685.06;;;4.73;100.00
54808;BME280;40708;50.364;7.550;2022-12-07T07:19:41;100677.19;;;4.73;100.00
54808;BME280;40708;50.364;7.550;2022-12-07T07:22:06;100680.88;;;4.80;100.00
54808;BME280;40708;50.364;7.550;2022-12-07T07:24:31;100681.69;;;4.77;100.00
54808;BME280;40708;50.364;7.550;2022-12-07T07:26:56;100675.56;;;4.78;100.00
54808;BME280;40708;50.364;7.550;2022-12-07T07:29:22;100672.09;;;4.78;100.00
54808;BME280;40708;50.364;7.550;2022-12-07T07:31:47;100670.25;;;4.75;100.00
54808;BME280;40708;50.364;7.550;2022-12-07T07:34:12;100675.44;;;4.72;100.00
54808;BME280;40708;50.364;7.550;2022-12-07T07:36:38;100676.28;;;4.71;100.00
54808;BME280;40708;50.364;7.550;2022-12-07T07:39:03;100670.28;;;4.77;100.00
54808;BME280;40708;50.364;7.550;2022-12-07T07:41:28;100672.13;;;4.81;100.00
54808;BME280;40708;50.364;7.550;2022-12-07T07:43:54;100680.97;;;4.83;100.00
54808;BME280;40708;50.364;7.550;2022-12-07T07:46:19;100680.03;;;4.81;100.00
54808;BME280;40708;50.364;7.550;2022-12-07T07:48:44;100676.56;;;4.82;100.00
54808;BME280;40708;50.364;7.550;2022-12-07T07:51:10;100686.22;;;4.83;100.00
54808;BME280;40708;50.364;7.550;2022-12-07T07:53:35;100681.81;;;4.82;100.00
54808;BME280;40708;50.364;7.550;2022-12-07T07:56:00;100685.41;;;4.86;100.00
54808;BME280;40708;50.364;7.550;2022-12-07T07:58:27;100690.69;;;4.86;100.00
54808;BME280;40708;50.364;7.550;2022-12-07T08:00:53;100690.59;;;4.82;100.00
54808;BME280;40708;50.364;7.550;2022-12-07T08:03:18;100701.00;;;4.78;100.00
54808;BME280;40708;50.364;7.550;2022-12-07T08:05:44;100699.09;;;4.72;100.00
54808;BME280;40708;50.364;7.550;2022-12-07T08:08:09;100701.84;;;4.78;100.00
54808;BME280;40708;50.364;7.550;2022-12-07T08:10:34;100698.19;;;4.72;100.00
54808;BME280;40708;50.364;7.550;2022-12-07T08:13:00;100700.13;;;4.79;100.00
54808;BME280;40708;50.364;7.550;2022-12-07T08:15:46;100693.22;;;4.82;100.00
54808;BME280;40708;50.364;7.550;2022-12-07T08:18:13;100696.69;;;4.81;100.00
54808;BME280;40708;50.364;7.550;2022-12-07T08:20:39;100692.31;;;4.82;100.00
54808;BME280;40708;50.364;7.550;2022-12-07T08:23:05;100692.31;;;4.80;100.00
54808;BME280;40708;50.364;7.550;2022-12-07T08:25:31;100691.34;;;4.78;100.00
54808;BME280;40708;50.364;7.550;2022-12-07T08:27:56;100695.06;;;4.87;100.00
54808;BME280;40708;50.364;7.550;2022-12-07T08:30:22;100692.31;;;4.82;100.00
54808;BME280;40708;50.364;7.550;2022-12-07T08:32:48;100695.13;;;4.88;100.00
54808;BME280;40708;50.364;7.550;2022-12-07T08:35:14;100695.97;;;4.87;100.00
54808;BME280;40708;50.364;7.550;2022-12-07T08:37:40;100691.81;;;4.95;100.00
54808;BME280;40708;50.364;7.550;2022-12-07T08:40:07;100696.63;;;5.11;100.00
54808;BME280;40708;50.364;7.550;2022-12-07T08:42:33;100695.16;;;5.22;100.00
54808;BME280;40708;50.364;7.550;2022-12-07T08:45:13;100697.78;;;5.22;100.00
54808;BME280;40708;50.364;7.550;2022-12-07T08:47:46;100707.63;;;5.29;100.00
54808;BME280;40708;50.364;7.550;2022-12-07T08:50:15;100706.75;;;5.29;100.00
54808;BME280;40708;50.364;7.550;2022-12-07T08:52:42;100711.22;;;5.33;100.00
54808;BME280;40708;50.364;7.550;2022-12-07T08:55:10;100704.47;;;5.44;100.00
54808;BME280;40708;50.364;7.550;2022-12-07T08:57:36;100697.81;;;5.57;100.00
54808;BME280;40708;50.364;7.550;2022-12-07T09:00:03;100691.63;;;5.56;100.00
54808;BME280;40708;50.364;7.550;2022-12-07T09:02:31;100690.84;;;5.60;100.00
54808;BME280;40708;50.364;7.550;2022-12-07T09:04:56;100687.28;;;5.57;100.00
54808;BME280;40708;50.364;7.550;2022-12-07T09:07:21;100681.75;;;5.46;100.00
54808;BME280;40708;50.364;7.550;2022-12-07T09:09:47;100685.31;;;5.50;100.00
54808;BME280;40708;50.364;7.550;2022-12-07T09:12:12;100685.88;;;5.72;100.00
54808;BME280;40708;50.364;7.550;2022-12-07T09:14:38;100690.97;;;6.01;100.00
54808;BME280;40708;50.364;7.550;2022-12-07T09:17:10;100683.88;;;5.98;100.00
54808;BME280;40708;50.364;7.550;2022-12-07T09:19:36;100681.69;;;5.80;100.00
54808;BME280;40708;50.364;7.550;2022-12-07T09:22:02;100673.47;;;6.03;100.00
54808;BME280;40708;50.364;7.550;2022-12-07T09:24:29;100684.59;;;6.30;100.00
54808;BME280;40708;50.364;7.550;2022-12-07T09:26:55;100686.28;;;6.28;100.00
54808;BME280;40708;50.364;7.550;2022-12-07T09:29:20;100681.81;;;6.22;100.00
54808;BME280;40708;50.364;7.550;2022-12-07T09:31:45;100674.06;;;6.31;100.00
54808;BME280;40708;50.364;7.550;2022-12-07T09:34:11;100674.69;;;6.20;100.00
54808;BME280;40708;50.364;7.550;2022-12-07T09:36:36;100669.94;;;6.04;100.00
54808;BME280;40708;50.364;7.550;2022-12-07T09:39:02;100667.53;;;6.13;100.00
54808;BME280;40708;50.364;7.550;2022-12-07T09:41:30;100670.22;;;6.16;100.00
54808;BME280;40708;50.364;7.550;2022-12-07T09:44:04;100665.03;;;6.19;100.00
54808;BME280;40708;50.364;7.550;2022-12-07T09:46:34;100672.88;;;6.16;100.00
54808;BME280;40708;50.364;7.550;2022-12-07T09:49:01;100669.53;;;6.24;100.00
54808;BME280;40708;50.364;7.550;2022-12-07T09:51:27;100666.69;;;6.14;100.00
54808;BME280;40708;50.364;7.550;2022-12-07T09:53:53;100660.47;;;6.12;100.00
54808;BME280;40708;50.364;7.550;2022-12-07T09:56:20;100659.31;;;5.97;100.00
54808;BME280;40708;50.364;7.550;2022-12-07T09:58:47;100663.25;;;5.80;100.00
54808;BME280;40708;50.364;7.550;2022-12-07T10:01:16;100655.19;;;5.73;100.00
54808;BME280;40708;50.364;7.550;2022-12-07T10:03:52;100660.31;;;5.68;100.00
54808;BME280;40708;50.364;7.550;2022-12-07T10:06:18;100653.50;;;5.76;100.00
54808;BME280;40708;50.364;7.550;2022-12-07T10:08:43;100644.59;;;5.71;100.00
54808;BME280;40708;50.364;7.550;2022-12-07T10:11:09;100646.81;;;5.89;100.00
54808;BME280;40708;50.364;7.550;2022-12-07T10:13:49;100632.75;;;5.88;100.00
54808;BME280;40708;50.364;7.550;2022-12-07T10:18:49;100635.53;;;5.94;100.00
54808;BME280;40708;50.364;7.550;2022-12-07T10:21:23;100638.41;;;6.05;100.00
54808;BME280;40708;50.364;7.550;2022-12-07T10:24:05;100644.94;;;6.24;100.00
54808;BME280;40708;50.364;7.550;2022-12-07T10:26:35;100634.69;;;6.39;100.00
54808;BME280;40708;50.364;7.550;2022-12-07T10:29:17;100629.66;;;6.49;100.00
54808;BME280;40708;50.364;7.550;2022-12-07T10:31:45;100623.66;;;6.58;100.00
54808;BME280;40708;50.364;7.550;2022-12-07T10:34:23;100609.31;;;6.90;100.00
54808;BME280;40708;50.364;7.550;2022-12-07T10:36:53;100609.78;;;7.17;100.00
54808;BME280;40708;50.364;7.550;2022-12-07T10:39:21;100601.34;;;7.40;100.00
54808;BME280;40708;50.364;7.550;2022-12-07T10:41:58;100590.41;;;7.72;100.00
54808;BME280;40708;50.364;7.550;2022-12-07T10:44:33;100573.13;;;7.97;100.00
54808;BME280;40708;50.364;7.550;2022-12-07T10:47:33;100558.66;;;8.37;100.00
54808;BME280;40708;50.364;7.550;2022-12-07T10:50:17;100548.19;;;8.46;100.00
54808;BME280;40708;50.364;7.550;2022-12-07T10:53:22;100541.41;;;8.71;100.00
54808;BME280;40708;50.364;7.550;2022-12-07T11:01:32;100515.78;;;8.65;100.00
54808;BME280;40708;50.364;7.550;2022-12-07T11:15:20;100502.13;;;7.54;100.00
54808;BME280;40708;50.364;7.550;2022-12-07T11:18:01;100505.44;;;7.38;100.00
54808;BME280;40708;50.364;7.550;2022-12-07T11:26:28;100487.06;;;8.17;100.00
54808;BME280;40708;50.364;7.550;2022-12-07T11:29:10;100487.69;;;8.81;100.00
54808;BME280;40708;50.364;7.550;2022-12-07T11:31:53;100476.53;;;9.18;100.00
54808;BME280;40708;50.364;7.550;2022-12-07T11:37:01;100470.16;;;8.95;100.00
54808;BME280;40708;50.364;7.550;2022-12-07T11:39:41;100467.38;;;8.72;100.00
54808;BME280;40708;50.364;7.550;2022-12-07T11:42:15;100463.28;;;8.17;100.00
54808;BME280;40708;50.364;7.550;2022-12-07T11:47:14;100461.03;;;7.74;100.00
54808;BME280;40708;50.364;7.550;2022-12-07T11:49:47;100467.16;;;7.07;100.00
54808;BME280;40708;50.364;7.550;2022-12-07T11:52:51;100477.28;;;6.78;100.00
54808;BME280;40708;50.364;7.550;2022-12-07T11:55:38;100476.03;;;6.56;100.00
54808;BME280;40708;50.364;7.550;2022-12-07T11:58:19;100481.03;;;6.41;100.00
54808;BME280;40708;50.364;7.550;2022-12-07T12:00:48;100476.34;;;6.25;100.00
54808;BME280;40708;50.364;7.550;2022-12-07T12:03:22;100467.59;;;6.26;100.00
54808;BME280;40708;50.364;7.550;2022-12-07T12:05:53;100462.06;;;6.13;100.00
54808;BME280;40708;50.364;7.550;2022-12-07T12:08:26;100468.94;;;6.03;100.00
54808;BME280;40708;50.364;7.550;2022-12-07T12:11:02;100469.84;;;6.05;100.00
54808;BME280;40708;50.364;7.550;2022-12-07T12:21:55;100446.44;;;7.34;100.00
54808;BME280;40708;50.364;7.550;2022-12-07T12:24:25;100437.84;;;7.47;100.00
54808;BME280;40708;50.364;7.550;2022-12-07T12:27:07;100431.97;;;7.71;100.00
54808;BME280;40708;50.364;7.550;2022-12-07T12:29:37;100425.44;;;8.20;100.00
54808;BME280;40708;50.364;7.550;2022-12-07T12:32:42;100415.19;;;8.53;100.00
54808;BME280;40708;50.364;7.550;2022-12-07T12:35:34;100409.31;;;8.93;100.00
54808;BME280;40708;50.364;7.550;2022-12-07T12:38:27;100421.47;;;8.67;100.00
54808;BME280;40708;50.364;7.550;2022-12-07T12:40:54;100434.50;;;8.46;100.00
54808;BME280;40708;50.364;7.550;2022-12-07T12:43:49;100447.31;;;7.35;100.00
54808;BME280;40708;50.364;7.550;2022-12-07T12:51:56;100444.00;;;6.34;100.00
54808;BME280;40708;50.364;7.550;2022-12-07T12:54:25;100441.00;;;6.13;100.00
54808;BME280;40708;50.364;7.550;2022-12-07T13:01:48;100460.84;;;5.95;100.00
54808;BME280;40708;50.364;7.550;2022-12-07T13:04:47;100461.44;;;5.82;100.00
54808;BME280;40708;50.364;7.550;2022-12-07T13:07:03;100452.81;;;5.88;100.00
54808;BME280;40708;50.364;7.550;2022-12-07T13:09:31;100459.69;;;5.81;100.00
54808;BME280;40708;50.364;7.550;2022-12-07T13:12:04;100450.13;;;5.85;100.00
54808;BME280;40708;50.364;7.550;2022-12-07T13:14:44;100447.38;;;5.80;100.00
54808;BME280;40708;50.364;7.550;2022-12-07T13:20:02;100437.56;;;5.72;100.00
54808;BME280;40708;50.364;7.550;2022-12-07T13:27:30;100455.19;;;5.34;100.00
54808;BME280;40708;50.364;7.550;2022-12-07T13:29:56;100452.75;;;5.43;100.00
54808;BME280;40708;50.364;7.550;2022-12-07T13:32:27;100454.28;;;5.32;100.00
54808;BME280;40708;50.364;7.550;2022-12-07T13:34:53;100463.59;;;5.18;100.00
54808;BME280;40708;50.364;7.550;2022-12-07T13:37:25;100463.53;;;5.15;100.00
54808;BME280;40708;50.364;7.550;2022-12-07T13:39:53;100482.25;;;5.30;100.00
54808;BME280;40708;50.364;7.550;2022-12-07T13:42:22;100480.13;;;5.51;100.00
54808;BME280;40708;50.364;7.550;2022-12-07T13:44:49;100474.28;;;5.66;100.00
54808;BME280;40708;50.364;7.550;2022-12-07T13:47:35;100469.53;;;5.90;100.00
54808;BME280;40708;50.364;7.550;2022-12-07T13:50:15;100468.31;;;6.18;100.00
54808;BME280;40708;50.364;7.550;2022-12-07T13:52:46;100473.63;;;6.21;100.00
54808;BME280;40708;50.364;7.550;2022-12-07T13:55:16;100464.53;;;6.04;100.00
54808;BME280;40708;50.364;7.550;2022-12-07T13:57:44;100471.31;;;5.92;100.00
54808;BME280;40708;50.364;7.550;2022-12-07T14:00:18;100456.06;;;5.76;100.00
54808;BME280;40708;50.364;7.550;2022-12-07T14:05:44;100445.22;;;5.60;100.00
54808;BME280;40708;50.364;7.550;2022-12-07T14:10:39;100440.75;;;5.57;100.00
54808;BME280;40708;50.364;7.550;2022-12-07T14:13:31;100441.56;;;5.53;100.00
54808;BME280;40708;50.364;7.550;2022-12-07T14:15:57;100442.19;;;5.41;100.00
54808;BME280;40708;50.364;7.550;2022-12-07T14:18:36;100445.50;;;5.33;100.00
54808;BME280;40708;50.364;7.550;2022-12-07T14:23:34;100451.34;;;5.18;100.00
54808;BME280;40708;50.364;7.550;2022-12-07T14:26:19;100453.75;;;5.09;100.00
54808;BME280;40708;50.364;7.550;2022-12-07T14:28:46;100451.00;;;5.03;100.00
54808;BME280;40708;50.364;7.550;2022-12-07T14:31:12;100448.25;;;4.97;100.00